Time;durP1;ratioP1;P1;durP2;ratioP2;P2;SDS_P1;SDS_P2;PMS_P1;PMS_P2;Temp;Humidity;BMP_temperature;BMP_pressure;BME280_temperature;BME280_humidity;BME280_pressure;Samples;Min_cycle;Max_cycle;Signal;HPM_P1;HPM_P2
2023/08/27 00:00:19;;;;;;;4.30;1.98;;;;;;;17.04;100.00;100931.81;5268419;28;20406;-71
2023/08/27 00:02:50;;;;;;;4.90;1.83;;;;;;;16.93;100.00;100930.38;5273300;28;20608;-71
2023/08/27 00:05:22;;;;;;;3.92;2.00;;;;;;;16.86;100.00;100921.47;5274919;28;20511;-70
2023/08/27 00:07:53;;;;;;;3.53;1.70;;;;;;;16.81;100.00;100917.66;5283072;28;20039;-71
2023/08/27 00:10:24;;;;;;;2.97;1.60;;;;;;;16.77;100.00;100904.75;5273076;28;20040;-71
2023/08/27 00:12:55;;;;;;;2.78;1.83;;;;;;;16.76;100.00;100892.53;5275697;28;20047;-71
2023/08/27 00:15:27;;;;;;;3.35;1.80;;;;;;;16.75;100.00;100890.88;5268831;28;20029;-71
2023/08/27 00:17:58;;;;;;;3.72;1.65;;;;;;;16.76;100.00;100881.94;5275504;28;20051;-71
2023/08/27 00:20:33;;;;;;;3.15;1.80;;;;;;;16.79;100.00;100870.22;5274192;28;20409;-71
2023/08/27 00:23:04;;;;;;;2.72;1.92;;;;;;;16.68;100.00;100862.59;5279714;28;20020;-71
2023/08/27 00:25:35;;;;;;;2.95;1.63;;;;;;;16.74;100.00;100859.28;5277035;28;20032;-71
2023/08/27 00:28:07;;;;;;;2.28;1.60;;;;;;;16.76;100.00;100846.72;5273410;28;20108;-71
2023/08/27 00:30:38;;;;;;;3.17;1.50;;;;;;;16.76;100.00;100839.63;5276440;28;20203;-71
2023/08/27 00:33:09;;;;;;;3.42;2.15;;;;;;;16.81;100.00;100838.28;5277981;28;20303;-71
2023/08/27 00:35:42;;;;;;;5.55;1.90;;;;;;;16.77;100.00;100837.78;5277942;28;20036;-71
2023/08/27 00:38:13;;;;;;;2.42;1.42;;;;;;;16.77;100.00;100833.31;5277909;28;20065;-71
2023/08/27 00:40:44;;;;;;;2.22;1.60;;;;;;;16.73;100.00;100836.47;5277487;28;20601;-71
2023/08/27 00:43:16;;;;;;;3.70;1.92;;;;;;;16.76;100.00;100836.16;5276664;28;20059;-71
2023/08/27 00:45:47;;;;;;;3.72;1.80;;;;;;;16.68;100.00;100830.84;5273921;28;20024;-71
2023/08/27 00:48:19;;;;;;;2.22;1.30;;;;;;;16.69;100.00;100830.69;5278531;28;20599;-71
2023/08/27 00:50:50;;;;;;;3.40;1.77;;;;;;;16.67;100.00;100835.34;5254236;28;20037;-71
2023/08/27 00:53:22;;;;;;;2.33;1.40;;;;;;;16.60;100.00;100837.00;5258093;28;20345;-71
2023/08/27 00:55:53;;;;;;;2.75;1.25;;;;;;;16.54;100.00;100827.09;5250598;28;20036;-71
2023/08/27 00:58:25;;;;;;;3.03;1.63;;;;;;;16.51;100.00;100820.31;5254146;28;20486;-71
2023/08/27 01:00:57;;;;;;;3.15;1.60;;;;;;;16.52;100.00;100821.97;5257038;28;20032;-71
2023/08/27 01:03:28;;;;;;;3.33;1.55;;;;;;;16.50;100.00;100823.13;5252685;28;20374;-71
2023/08/27 01:05:59;;;;;;;4.53;1.45;;;;;;;16.47;100.00;100837.50;5253550;28;20037;-70
2023/08/27 01:08:42;;;;;;;2.20;1.48;;;;;;;16.56;100.00;100833.03;5259981;28;20039;-71
2023/08/27 01:11:26;;;;;;;2.70;1.60;;;;;;;16.65;100.00;100824.06;5258231;28;20028;-71
2023/08/27 01:14:10;;;;;;;2.92;1.30;;;;;;;16.56;100.00;100827.75;5255526;28;20033;-72
2023/08/27 01:16:42;;;;;;;4.05;1.30;;;;;;;16.34;100.00;100823.19;5260034;28;20033;-70
2023/08/27 01:19:15;;;;;;;2.63;1.50;;;;;;;16.30;100.00;100817.41;5255901;28;20474;-71
2023/08/27 01:21:47;;;;;;;1.73;1.20;;;;;;;16.23;100.00;100814.59;5247381;28;20521;-71
2023/08/27 01:24:18;;;;;;;2.25;1.30;;;;;;;16.24;100.00;100813.59;5256709;28;20032;-71
2023/08/27 01:27:05;;;;;;;2.90;1.65;;;;;;;16.19;100.00;100818.56;5255107;28;20033;-71
2023/08/27 01:29:43;;;;;;;2.70;1.27;;;;;;;16.20;100.00;100809.63;5254279;28;20040;-71
2023/08/27 01:32:37;;;;;;;2.90;1.45;;;;;;;16.16;100.00;100815.44;5255962;28;20637;-71
2023/08/27 01:35:12;;;;;;;2.05;1.27;;;;;;;16.10;100.00;100810.78;5257524;28;20108;-70
2023/08/27 01:37:44;;;;;;;3.40;1.60;;;;;;;16.08;100.00;100807.50;5241477;28;20070;-70
2023/08/27 01:40:17;;;;;;;2.80;1.75;;;;;;;16.09;100.00;100793.31;5257399;28;20036;-70
2023/08/27 01:42:49;;;;;;;3.22;1.35;;;;;;;16.03;100.00;100790.34;5256719;28;20040;-70
2023/08/27 01:45:20;;;;;;;2.35;1.60;;;;;;;16.09;100.00;100809.97;5253277;28;20275;-70
2023/08/27 01:47:51;;;;;;;2.90;1.75;;;;;;;16.08;100.00;100810.97;5259739;28;20032;-70
2023/08/27 01:50:23;;;;;;;2.28;1.55;;;;;;;16.07;100.00;100797.94;5270025;28;20052;-70
2023/08/27 01:52:54;;;;;;;2.17;1.20;;;;;;;16.11;100.00;100804.53;5262158;28;20186;-70
2023/08/27 01:55:25;;;;;;;4.32;1.70;;;;;;;16.11;100.00;100802.72;5273631;28;20027;-70
2023/08/27 01:57:56;;;;;;;3.30;1.63;;;;;;;16.15;100.00;100798.75;5279023;28;20029;-71
2023/08/27 02:00:28;;;;;;;2.97;1.30;;;;;;;16.15;100.00;100801.41;5279278;28;20036;-70
2023/08/27 02:02:59;;;;;;;4.05;1.50;;;;;;;16.20;100.00;100795.59;5274513;28;20020;-70
2023/08/27 02:05:30;;;;;;;2.55;1.30;;;;;;;16.18;100.00;100792.31;5282225;28;20107;-71
2023/08/27 02:08:03;;;;;;;3.17;1.58;;;;;;;16.23;100.00;100800.56;5276182;28;20036;-71
2023/08/27 02:10:34;;;;;;;3.08;1.50;;;;;;;16.20;100.00;100801.69;5273468;28;20057;-70
2023/08/27 02:13:05;;;;;;;2.10;1.67;;;;;;;16.25;100.00;100803.84;5280683;28;20123;-70
2023/08/27 02:15:37;;;;;;;2.03;1.52;;;;;;;16.16;100.00;100802.22;5277418;28;20035;-70
2023/08/27 02:18:08;;;;;;;4.53;1.60;;;;;;;16.19;100.00;100807.16;5279695;28;20373;-70
2023/08/27 02:20:39;;;;;;;2.30;1.60;;;;;;;16.18;100.00;100802.88;5277216;28;20074;-70
2023/08/27 02:23:10;;;;;;;2.80;1.48;;;;;;;16.16;100.00;100800.41;5274684;28;20133;-70
2023/08/27 02:25:42;;;;;;;3.92;1.77;;;;;;;16.10;100.00;100813.44;5275035;28;20430;-70
2023/08/27 02:28:13;;;;;;;2.20;1.55;;;;;;;16.06;100.00;100794.44;5280365;28;20028;-70
2023/08/27 02:30:54;;;;;;;3.17;1.85;;;;;;;16.29;100.00;100802.53;5275640;28;20031;-70
2023/08/27 02:33:25;;;;;;;2.45;1.77;;;;;;;16.04;100.00;100797.28;5272430;28;20727;-71
2023/08/27 02:35:56;;;;;;;2.83;1.80;;;;;;;16.12;100.00;100804.38;5274082;28;20025;-71
2023/08/27 02:38:28;;;;;;;4.70;2.00;;;;;;;16.05;100.00;100809.47;5281306;28;20115;-71
2023/08/27 02:40:59;;;;;;;4.03;1.90;;;;;;;15.98;100.00;100794.47;5273926;28;20507;-71
2023/08/27 02:43:31;;;;;;;2.50;1.75;;;;;;;16.09;100.00;100796.75;5276084;28;20099;-71
2023/08/27 02:46:04;;;;;;;5.35;2.42;;;;;;;16.05;100.00;100798.91;5270675;28;20676;-71
2023/08/27 02:48:35;;;;;;;3.92;2.10;;;;;;;16.07;100.00;100798.75;5276012;28;20080;-71
2023/08/27 02:51:07;;;;;;;4.15;2.17;;;;;;;16.05;100.00;100800.72;5272542;28;20024;-71
2023/08/27 02:53:38;;;;;;;3.47;1.90;;;;;;;16.05;100.00;100808.66;5274474;28;20221;-71
2023/08/27 02:56:09;;;;;;;3.13;1.88;;;;;;;16.06;100.00;100810.31;5276016;28;20181;-71
2023/08/27 02:58:41;;;;;;;2.38;1.77;;;;;;;16.08;100.00;100797.75;5269035;28;20020;-71
2023/08/27 03:01:20;;;;;;;4.22;1.90;;;;;;;16.22;100.00;100804.19;5274646;28;20055;-71
2023/08/27 03:03:51;;;;;;;3.25;2.20;;;;;;;16.11;100.00;100807.19;5271749;28;20033;-71
2023/08/27 03:06:22;;;;;;;2.70;1.85;;;;;;;16.17;100.00;100811.78;5271000;28;20043;-71
2023/08/27 03:08:53;;;;;;;3.00;1.90;;;;;;;16.21;100.00;100800.72;5271880;28;20463;-71
2023/08/27 03:11:25;;;;;;;2.83;2.05;;;;;;;16.18;100.00;100801.06;5274624;28;20366;-71
2023/08/27 03:13:56;;;;;;;5.80;2.78;;;;;;;16.22;100.00;100804.19;5273591;28;20362;-71
2023/08/27 03:16:27;;;;;;;4.78;2.45;;;;;;;16.19;100.00;100805.34;5270571;28;20308;-71
2023/08/27 03:18:59;;;;;;;2.70;1.90;;;;;;;16.18;100.00;100814.28;5277384;28;20028;-71
2023/08/27 03:21:30;;;;;;;2.53;1.70;;;;;;;16.18;100.00;100809.00;5260221;28;20033;-71
2023/08/27 03:24:02;;;;;;;4.13;2.42;;;;;;;16.18;100.00;100816.91;5280076;28;20043;-71
2023/08/27 03:26:34;;;;;;;2.90;1.95;;;;;;;16.18;100.00;100824.03;5271040;28;20036;-71
2023/08/27 03:29:05;;;;;;;3.85;2.08;;;;;;;16.18;100.00;100819.56;5271233;28;20028;-71
2023/08/27 03:31:36;;;;;;;5.05;2.13;;;;;;;16.18;100.00;100819.56;5272580;28;20452;-71
2023/08/27 03:34:07;;;;;;;4.32;2.40;;;;;;;16.15;100.00;100805.84;5271707;28;20034;-71
2023/08/27 03:36:39;;;;;;;4.85;2.50;;;;;;;16.16;100.00;100805.69;5264746;28;20205;-71
2023/08/27 03:39:10;;;;;;;5.32;2.30;;;;;;;16.18;100.00;100801.06;5277576;28;20028;-71
2023/08/27 03:41:41;;;;;;;3.42;2.10;;;;;;;16.18;100.00;100793.13;5275198;28;20043;-71
2023/08/27 03:44:13;;;;;;;3.42;2.28;;;;;;;16.14;100.00;100789.19;5276045;28;20132;-71
2023/08/27 03:46:44;;;;;;;3.53;1.95;;;;;;;16.16;100.00;100781.06;5252106;28;20060;-71
2023/08/27 03:49:15;;;;;;;3.42;2.25;;;;;;;16.11;100.00;100775.47;5272195;28;20473;-71
2023/08/27 03:51:46;;;;;;;4.40;2.03;;;;;;;16.13;100.00;100781.41;5275917;28;20469;-71
2023/08/27 03:54:18;;;;;;;4.03;1.70;;;;;;;16.08;100.00;100776.63;5264472;28;20032;-71
2023/08/27 03:56:49;;;;;;;3.33;1.70;;;;;;;16.08;100.00;100771.34;5272600;28;20116;-71
2023/08/27 03:59:20;;;;;;;3.50;1.88;;;;;;;16.09;100.00;100766.88;5280680;28;20051;-71
2023/08/27 04:01:52;;;;;;;3.00;1.88;;;;;;;16.07;100.00;100774.16;5274818;28;20387;-72
2023/08/27 04:04:24;;;;;;;3.00;1.92;;;;;;;16.04;100.00;100770.03;5279371;28;20039;-72
2023/08/27 04:06:55;;;;;;;4.30;2.03;;;;;;;16.09;100.00;100775.63;5272013;28;20386;-72
2023/08/27 04:09:26;;;;;;;4.32;2.20;;;;;;;16.15;100.00;100774.97;5282513;28;20024;-72
2023/08/27 04:11:58;;;;;;;3.95;2.40;;;;;;;16.19;100.00;100765.69;5253160;28;20032;-72
2023/08/27 04:14:29;;;;;;;2.80;1.83;;;;;;;16.20;100.00;100759.41;5278685;28;20031;-72
2023/08/27 04:17:00;;;;;;;4.78;2.33;;;;;;;16.18;100.00;100761.41;5276694;28;20351;-72
2023/08/27 04:19:32;;;;;;;3.60;2.08;;;;;;;16.16;100.00;100781.06;5282361;28;20020;-73
2023/08/27 04:22:03;;;;;;;4.40;2.20;;;;;;;16.16;100.00;100771.31;5256655;28;20672;-73
2023/08/27 04:24:34;;;;;;;3.45;2.10;;;;;;;16.21;100.00;100776.09;5284242;28;20396;-73
2023/08/27 04:27:05;;;;;;;3.80;2.10;;;;;;;16.15;100.00;100779.44;5281612;28;20028;-73
2023/08/27 04:29:37;;;;;;;4.25;1.95;;;;;;;16.14;100.00;100765.38;5273947;28;20109;-70
2023/08/27 04:32:08;;;;;;;3.28;2.08;;;;;;;16.13;100.00;100771.66;5277932;28;20036;-70
2023/08/27 04:34:39;;;;;;;4.97;2.25;;;;;;;16.14;100.00;100772.47;5276570;28;20035;-71
2023/08/27 04:37:10;;;;;;;4.13;2.20;;;;;;;16.13;100.00;100774.28;5278031;28;20020;-71
2023/08/27 04:39:42;;;;;;;4.57;2.20;;;;;;;16.14;100.00;100761.91;5281051;28;20036;-70
2023/08/27 04:42:13;;;;;;;4.88;2.75;;;;;;;16.14;100.00;100768.03;5277514;28;20040;-70
2023/08/27 04:44:45;;;;;;;4.20;2.17;;;;;;;16.10;100.00;100764.09;5278013;28;20036;-70
2023/08/27 04:47:16;;;;;;;4.07;2.40;;;;;;;16.06;100.00;100768.03;5274843;28;20081;-70
2023/08/27 04:49:47;;;;;;;3.97;2.03;;;;;;;16.03;100.00;100776.31;5274654;28;20144;-70
2023/08/27 04:52:18;;;;;;;3.65;2.45;;;;;;;16.05;100.00;100776.94;5278152;28;20149;-70
2023/08/27 04:54:50;;;;;;;3.45;2.15;;;;;;;16.03;100.00;100784.25;5277944;28;20047;-70
2023/08/27 04:57:21;;;;;;;3.15;2.05;;;;;;;16.03;100.00;100789.53;5283559;28;20177;-70
2023/08/27 04:59:54;;;;;;;4.10;2.15;;;;;;;16.03;100.00;100794.81;5276712;28;20025;-70
2023/08/27 05:02:25;;;;;;;4.22;2.03;;;;;;;16.02;100.00;100799.28;5277834;28;20071;-70
2023/08/27 05:04:56;;;;;;;2.92;1.90;;;;;;;16.02;100.00;100798.41;5285810;28;20031;-70
2023/08/27 05:07:28;;;;;;;2.95;2.10;;;;;;;16.03;100.00;100802.72;5281831;28;20028;-70
2023/08/27 05:09:59;;;;;;;3.88;2.15;;;;;;;15.98;100.00;100797.94;5275520;28;20136;-70
2023/08/27 05:12:30;;;;;;;3.42;2.30;;;;;;;15.99;100.00;100806.72;5275955;28;20086;-70
2023/08/27 05:15:02;;;;;;;2.75;2.10;;;;;;;15.98;100.00;100794.47;5280400;28;20027;-70
2023/08/27 05:17:34;;;;;;;3.03;1.90;;;;;;;16.04;100.00;100802.56;5283552;28;20030;-70
2023/08/27 05:20:07;;;;;;;3.88;2.10;;;;;;;16.07;100.00;100803.22;5281227;28;20028;-70
2023/08/27 05:22:38;;;;;;;4.68;2.35;;;;;;;16.04;100.00;100791.16;5277380;28;20024;-70
2023/08/27 05:25:09;;;;;;;4.57;2.40;;;;;;;16.08;100.00;100800.41;5279639;28;20032;-70
2023/08/27 05:27:44;;;;;;;5.32;2.50;;;;;;;16.03;100.00;100793.00;5279748;28;20035;-70
2023/08/27 05:30:15;;;;;;;3.55;2.22;;;;;;;16.09;100.00;100803.88;5272758;28;20036;-70
2023/08/27 05:32:46;;;;;;;5.82;2.00;;;;;;;16.07;100.00;100792.66;5277800;28;20516;-70
2023/08/27 05:35:17;;;;;;;5.85;2.15;;;;;;;16.03;100.00;100794.81;5282079;28;20029;-70
2023/08/27 05:37:49;;;;;;;2.53;2.00;;;;;;;16.08;100.00;100784.56;5280981;28;20212;-70
2023/08/27 05:40:20;;;;;;;3.47;2.22;;;;;;;16.05;100.00;100793.63;5278741;28;20039;-70
2023/08/27 05:42:51;;;;;;;3.50;2.42;;;;;;;16.09;100.00;100801.22;5279931;28;20082;-70
2023/08/27 05:45:22;;;;;;;3.88;2.58;;;;;;;16.12;100.00;100799.06;5273849;28;20032;-70
2023/08/27 05:47:54;;;;;;;6.70;2.40;;;;;;;16.10;100.00;100798.44;5280101;28;20369;-70
2023/08/27 05:50:25;;;;;;;4.43;2.70;;;;;;;16.12;100.00;100796.44;5280936;28;20040;-70
2023/08/27 05:52:56;;;;;;;3.90;2.60;;;;;;;16.14;100.00;100798.91;5279368;28;20024;-73
2023/08/27 05:55:27;;;;;;;3.22;2.17;;;;;;;16.17;100.00;100795.94;5276148;28;20033;-70
2023/08/27 05:57:59;;;;;;;5.55;2.38;;;;;;;16.13;100.00;100790.16;5277039;28;20488;-70
2023/08/27 06:00:31;;;;;;;4.70;2.50;;;;;;;16.15;100.00;100793.47;5274031;28;20366;-70
2023/08/27 06:03:03;;;;;;;3.50;2.72;;;;;;;16.20;100.00;100791.13;5272051;28;20028;-70
2023/08/27 06:05:34;;;;;;;2.97;2.40;;;;;;;16.22;100.00;100794.44;5274498;28;20040;-70
2023/08/27 06:08:06;;;;;;;3.65;2.60;;;;;;;16.24;100.00;100781.06;5273523;28;20038;-70
2023/08/27 06:10:37;;;;;;;4.82;2.38;;;;;;;16.30;100.00;100783.84;5271469;28;20071;-70
2023/08/27 06:13:08;;;;;;;5.13;2.20;;;;;;;16.27;100.00;100773.59;5274285;28;20024;-70
2023/08/27 06:15:40;;;;;;;6.78;2.72;;;;;;;16.28;100.00;100775.25;5272898;28;20047;-70
2023/08/27 06:18:11;;;;;;;4.70;2.80;;;;;;;16.33;100.00;100773.91;5282443;28;20081;-70
2023/08/27 06:20:42;;;;;;;3.47;2.35;;;;;;;16.29;100.00;100773.47;5280668;28;20311;-70
2023/08/27 06:23:14;;;;;;;4.88;2.58;;;;;;;16.29;100.00;100774.28;5254183;28;20377;-72
2023/08/27 06:25:46;;;;;;;4.63;2.35;;;;;;;16.26;100.00;100764.03;5262369;28;20028;-70
2023/08/27 06:28:17;;;;;;;5.78;2.70;;;;;;;16.34;100.00;100765.00;5275102;28;20390;-73
2023/08/27 06:30:48;;;;;;;4.90;2.45;;;;;;;16.37;100.00;100769.97;5274138;28;20485;-73
2023/08/27 06:33:19;;;;;;;5.32;2.42;;;;;;;16.43;100.00;100769.25;5278877;28;20068;-70
2023/08/27 06:35:51;;;;;;;4.55;2.47;;;;;;;16.44;100.00;100763.81;5274726;28;20028;-71
2023/08/27 06:38:22;;;;;;;3.53;2.72;;;;;;;16.51;100.00;100766.59;5254692;28;20032;-71
2023/08/27 06:40:53;;;;;;;4.13;2.38;;;;;;;16.52;100.00;100770.91;5277382;28;20073;-70
2023/08/27 06:43:25;;;;;;;3.55;2.88;;;;;;;16.63;100.00;100767.03;5277022;28;20111;-71
2023/08/27 06:45:56;;;;;;;4.50;2.67;;;;;;;16.69;100.00;100780.41;5274612;28;20031;-71
2023/08/27 06:48:28;;;;;;;3.47;2.60;;;;;;;16.79;100.00;100769.66;5281318;28;20665;-71
2023/08/27 06:50:59;;;;;;;3.97;2.42;;;;;;;16.90;100.00;100771.13;5278286;28;20127;-71
2023/08/27 06:53:30;;;;;;;4.20;2.88;;;;;;;16.92;100.00;100772.56;5259835;28;20369;-71
2023/08/27 06:56:02;;;;;;;4.45;2.92;;;;;;;16.96;100.00;100775.69;5277304;28;20312;-71
2023/08/27 06:58:33;;;;;;;6.05;2.55;;;;;;;16.95;100.00;100768.75;5277894;28;20071;-71
2023/08/27 07:01:04;;;;;;;4.18;3.03;;;;;;;17.06;100.00;100770.19;5272857;28;20033;-71
2023/08/27 07:03:36;;;;;;;4.78;2.65;;;;;;;17.08;100.00;100779.59;5250041;28;20024;-71
2023/08/27 07:06:09;;;;;;;5.77;2.53;;;;;;;17.17;100.00;100781.22;5273945;28;20512;-73
2023/08/27 07:08:41;;;;;;;4.43;2.70;;;;;;;17.23;100.00;100790.25;5278183;28;20028;-71
2023/08/27 07:11:13;;;;;;;6.30;3.10;;;;;;;17.29;100.00;100783.47;5270880;28;20289;-72
2023/08/27 07:13:44;;;;;;;5.63;2.90;;;;;;;17.36;100.00;100789.72;5277768;28;20043;-71
2023/08/27 07:16:16;;;;;;;5.35;3.45;;;;;;;17.42;100.00;100796.94;5279288;28;20406;-71
2023/08/27 07:18:47;;;;;;;6.50;3.00;;;;;;;17.45;100.00;100783.34;5274231;28;20063;-71
2023/08/27 07:21:18;;;;;;;5.78;2.95;;;;;;;17.65;100.00;100787.19;5278350;28;20654;-71
2023/08/27 07:23:50;;;;;;;7.47;3.15;;;;;;;17.66;100.00;100783.53;5274504;28;20028;-71
2023/08/27 07:26:22;;;;;;;6.18;3.25;;;;;;;17.68;100.00;100785.97;5275352;28;20474;-71
2023/08/27 07:28:53;;;;;;;6.97;3.30;;;;;;;17.73;100.00;100773.03;5280305;28;20495;-72
2023/08/27 07:31:24;;;;;;;5.68;3.53;;;;;;;17.79;100.00;100777.63;5267310;28;20388;-71
2023/08/27 07:33:56;;;;;;;7.13;3.17;;;;;;;17.84;100.00;100793.00;5270761;28;20035;-71
2023/08/27 07:36:27;;;;;;;4.35;3.08;;;;;;;17.89;100.00;100791.47;5271751;28;20039;-71
2023/08/27 07:38:58;;;;;;;6.55;2.90;;;;;;;18.05;100.00;100795.78;5279183;28;20549;-72
2023/08/27 07:41:29;;;;;;;6.93;3.10;;;;;;;18.13;100.00;100789.59;5280071;28;21214;-71
2023/08/27 07:44:01;;;;;;;6.78;2.95;;;;;;;18.22;100.00;100792.00;5282369;28;20564;-73
2023/08/27 07:46:32;;;;;;;4.65;3.38;;;;;;;18.28;100.00;100797.56;5278575;28;20119;-71
2023/08/27 07:49:03;;;;;;;6.03;3.35;;;;;;;18.29;100.00;100794.72;5283118;28;20051;-72
2023/08/27 07:51:35;;;;;;;5.78;3.75;;;;;;;18.30;100.00;100793.75;5278272;28;20045;-72
2023/08/27 07:54:07;;;;;;;5.60;3.63;;;;;;;18.33;100.00;100792.53;5256600;28;20028;-71
2023/08/27 07:56:38;;;;;;;5.40;3.70;;;;;;;18.40;100.00;100788.97;5281560;28;20183;-72
2023/08/27 07:59:09;;;;;;;7.50;3.88;;;;;;;18.38;100.00;100796.31;5267975;28;20036;-71
2023/08/27 08:01:41;;;;;;;6.47;3.80;;;;;;;18.57;100.00;100786.97;5277546;28;20101;-72
2023/08/27 08:04:12;;;;;;;5.95;3.83;;;;;;;18.71;100.00;100782.66;5273409;28;20025;-72
2023/08/27 08:06:43;;;;;;;4.78;3.05;;;;;;;18.76;100.00;100780.31;5283345;28;20033;-72
2023/08/27 08:09:15;;;;;;;8.55;4.05;;;;;;;18.84;100.00;100774.06;5263266;28;20064;-71
2023/08/27 08:11:46;;;;;;;7.18;3.55;;;;;;;18.91;100.00;100786.41;5268006;28;20461;-72
2023/08/27 08:14:18;;;;;;;8.23;3.83;;;;;;;18.85;100.00;100783.66;5277951;28;20387;-72
2023/08/27 08:16:52;;;;;;;5.10;3.63;;;;;;;18.86;100.00;100782.66;5273857;28;20028;-72
2023/08/27 08:19:24;;;;;;;5.63;3.35;;;;;;;18.71;100.00;100783.53;5265871;28;20158;-72
2023/08/27 08:21:55;;;;;;;5.63;3.85;;;;;;;18.63;100.00;100783.56;5248302;28;20025;-72
2023/08/27 08:24:26;;;;;;;6.78;3.13;;;;;;;18.84;100.00;100792.66;5274539;28;20426;-72
2023/08/27 08:27:02;;;;;;;5.75;3.28;;;;;;;18.98;100.00;100791.81;5277248;28;20032;-72
2023/08/27 08:29:33;;;;;;;6.30;3.28;;;;;;;19.15;100.00;100793.22;5276197;28;20028;-72
2023/08/27 08:32:05;;;;;;;6.97;3.65;;;;;;;19.28;100.00;100789.03;5276820;28;20029;-72
2023/08/27 08:34:36;;;;;;;5.40;2.95;;;;;;;19.26;100.00;100797.22;5277855;28;20040;-72
2023/08/27 08:37:08;;;;;;;5.80;2.90;;;;;;;19.41;100.00;100789.19;5272568;28;20051;-72
2023/08/27 08:39:40;;;;;;;5.28;2.55;;;;;;;19.60;100.00;100801.84;5275271;28;20024;-72
2023/08/27 08:42:26;;;;;;;5.10;2.90;;;;;;;19.68;100.00;100799.09;5278161;28;20017;-72
2023/08/27 08:45:10;;;;;;;5.75;2.38;;;;;;;19.76;100.00;100792.00;5274287;28;21108;-73
2023/08/27 08:47:43;;;;;;;5.68;2.60;;;;;;;19.96;100.00;100790.31;5276896;28;20081;-73
2023/08/27 08:50:16;;;;;;;4.03;2.20;;;;;;;20.02;100.00;100784.22;5275201;28;20052;-73
2023/08/27 08:52:48;;;;;;;;;;;;;;;20.88;100.00;100787.41;5271995;28;20097;-73
2023/08/27 08:55:22;;;;;;;5.47;2.55;;;;;;;20.28;100.00;100802.22;5277993;28;19923;-73
2023/08/27 08:58:06;;;;;;;4.60;2.13;;;;;;;20.26;100.00;100792.78;5275742;28;20065;-72
2023/08/27 09:00:38;;;;;;;3.70;1.92;;;;;;;19.88;100.00;100779.81;5273878;28;20024;-73
2023/08/27 09:03:11;;;;;;;6.03;2.30;;;;;;;19.89;100.00;100792.94;5278400;28;20550;-73
2023/08/27 09:05:43;;;;;;;5.70;2.28;;;;;;;19.72;100.00;100785.41;5269649;28;20032;-73
2023/08/27 09:08:15;;;;;;;5.03;1.70;;;;;;;19.69;100.00;100791.94;5272636;28;20075;-73
2023/08/27 09:10:50;;;;;;;5.75;1.90;;;;;;;19.82;100.00;100785.94;5274966;28;20024;-73
2023/08/27 09:13:21;;;;;;;7.28;1.58;;;;;;;19.84;100.00;100778.56;5269770;28;20036;-73
2023/08/27 09:15:53;;;;;;;5.28;2.00;;;;;;;20.20;100.00;100777.59;5272339;28;20035;-71
2023/08/27 09:18:24;;;;;;;5.13;1.53;;;;;;;20.43;100.00;100775.50;5276629;28;20097;-72
2023/08/27 09:20:55;;;;;;;3.20;1.60;;;;;;;20.62;100.00;100758.81;5272973;28;20101;-72
2023/08/27 09:23:28;;;;;;;3.10;1.20;;;;;;;20.81;100.00;100764.44;5265400;28;20489;-73
2023/08/27 09:26:02;;;;;;;;;;;;;;;21.51;100.00;100776.50;5275806;28;20109;-72
2023/08/27 09:28:34;;;;;;;2.85;1.40;;;;;;;20.99;100.00;100767.38;5276099;28;19926;-72
2023/08/27 09:31:09;;;;;;;4.50;1.70;;;;;;;21.17;100.00;100757.97;5270474;28;20481;-72
2023/08/27 09:33:41;;;;;;;4.35;2.05;;;;;;;21.16;100.00;100757.16;5270683;28;20028;-72
2023/08/27 09:36:13;;;;;;;4.90;1.70;;;;;;;21.13;100.00;100752.22;5272890;28;20405;-72
2023/08/27 09:38:46;;;;;;;5.03;1.70;;;;;;;20.93;100.00;100743.38;5271535;28;20086;-72
2023/08/27 09:41:17;;;;;;;4.88;1.55;;;;;;;20.90;100.00;100740.06;5268470;28;20452;-73
2023/08/27 09:43:53;;;;;;;5.80;2.30;;;;;;;21.04;100.00;100743.59;5272923;28;20035;-73
2023/08/27 09:46:24;;;;;;;4.25;1.58;;;;;;;21.01;100.00;100740.53;5271226;28;20070;-73
2023/08/27 09:48:57;;;;;;;3.97;1.77;;;;;;;21.20;100.00;100737.06;5269251;28;20781;-73
2023/08/27 09:51:29;;;;;;;4.53;1.70;;;;;;;21.32;100.00;100740.78;5272247;28;20028;-73
2023/08/27 09:54:00;;;;;;;7.90;1.93;;;;;;;21.42;100.00;100734.28;5273890;28;20543;-73
2023/08/27 09:56:36;;;;;;;7.83;1.53;;;;;;;21.40;100.00;100736.31;5272613;28;20031;-73
2023/08/27 09:59:07;;;;;;;4.72;1.38;;;;;;;21.37;100.00;100743.72;5271064;28;20032;-73
2023/08/27 10:01:38;;;;;;;4.30;1.73;;;;;;;21.32;100.00;100748.78;5268910;28;20033;-73
2023/08/27 10:04:10;;;;;;;4.73;1.37;;;;;;;21.50;100.00;100734.06;5261907;28;20170;-73
2023/08/27 10:06:42;;;;;;;5.07;1.60;;;;;;;21.56;100.00;100738.59;5269999;28;20051;-73
2023/08/27 10:09:14;;;;;;;3.93;1.70;;;;;;;21.67;100.00;100737.13;5274653;28;20504;-73
2023/08/27 10:11:46;;;;;;;4.28;1.52;;;;;;;21.77;100.00;100741.03;5273324;28;20043;-73
2023/08/27 10:14:18;;;;;;;3.40;1.65;;;;;;;21.92;100.00;100743.47;5274299;28;20494;-73
2023/08/27 10:16:49;;;;;;;6.40;1.93;;;;;;;21.80;100.00;100739.81;5274432;28;20039;-73
2023/08/27 10:19:21;;;;;;;6.03;1.40;;;;;;;21.98;100.00;100745.34;5273765;28;20043;-73
2023/08/27 10:21:53;;;;;;;4.67;1.60;;;;;;;22.16;100.00;100742.06;5272134;28;20123;-73
2023/08/27 10:24:25;;;;;;;4.95;1.30;;;;;;;22.29;96.48;100735.84;5272178;28;20037;-73
2023/08/27 10:26:57;;;;;;;2.58;1.15;;;;;;;22.49;100.00;100735.78;5269019;28;20032;-73
2023/08/27 10:29:30;;;;;;;4.85;1.27;;;;;;;22.30;95.35;100738.31;5266384;28;20043;-71
2023/08/27 10:32:02;;;;;;;4.60;1.30;;;;;;;22.25;95.31;100735.44;5253729;28;20046;-74
2023/08/27 10:34:34;;;;;;;3.92;1.35;;;;;;;22.24;97.43;100731.16;5274191;28;20055;-72
2023/08/27 10:37:09;;;;;;;3.05;1.10;;;;;;;22.07;93.42;100737.94;5273461;28;20032;-72
2023/08/27 10:39:41;;;;;;;3.53;1.40;;;;;;;21.90;99.41;100737.56;5272038;28;20036;-72
2023/08/27 10:42:33;;;;;;;3.50;1.30;;;;;;;22.04;99.30;100749.00;5261731;28;20390;-72
2023/08/27 10:45:20;;;;;;;2.72;1.05;;;;;;;21.94;100.00;100749.44;5258542;28;20062;-72
2023/08/27 10:48:11;;;;;;;5.80;1.23;;;;;;;22.24;99.47;100749.84;5273412;28;20036;-72
2023/08/27 10:50:49;;;;;;;4.35;1.40;;;;;;;22.16;96.45;100751.88;5267989;28;20052;-72
2023/08/27 10:53:21;;;;;;;2.78;1.13;;;;;;;21.93;91.09;100753.13;5274836;28;20316;-71
2023/08/27 10:55:53;;;;;;;3.03;1.00;;;;;;;21.92;96.33;100756.00;5272620;28;20055;-71
2023/08/27 10:58:26;;;;;;;3.87;1.07;;;;;;;21.72;97.28;100748.03;5275684;28;20143;-70
2023/08/27 11:01:11;;;;;;;3.28;1.20;;;;;;;21.94;95.15;100746.78;5272292;28;20315;-72
2023/08/27 11:03:57;;;;;;;3.70;1.20;;;;;;;22.36;97.72;100744.66;5269537;28;20050;-71
2023/08/27 11:06:32;;;;;;;4.00;1.00;;;;;;;22.46;84.76;100745.03;5264486;28;20047;-72
2023/08/27 11:09:17;;;;;;;3.30;1.00;;;;;;;22.56;81.46;100748.06;5270410;28;20024;-72
2023/08/27 11:11:51;;;;;;;2.10;1.05;;;;;;;22.42;80.79;100745.66;5270424;28;20024;-71
2023/08/27 11:14:24;;;;;;;1.75;0.73;;;;;;;22.21;81.79;100755.59;5274238;28;20420;-72
2023/08/27 11:16:58;;;;;;;2.78;1.00;;;;;;;21.99;84.60;100749.63;5251528;28;20795;-72
2023/08/27 11:19:34;;;;;;;1.90;0.75;;;;;;;21.73;81.89;100760.31;5271402;28;20063;-71
2023/08/27 11:22:06;;;;;;;1.58;0.63;;;;;;;21.12;95.27;100799.34;5268416;28;20489;-71
2023/08/27 11:24:43;;;;;;;6.03;1.27;;;;;;;20.52;100.00;100822.25;5274513;28;20039;-72
2023/08/27 11:27:19;;;;;;;4.30;1.25;;;;;;;20.06;100.00;100832.53;5278639;28;20040;-73
2023/08/27 11:29:52;;;;;;;2.47;0.80;;;;;;;19.64;100.00;100816.44;5271324;28;20055;-73
2023/08/27 11:32:23;;;;;;;3.10;0.90;;;;;;;19.52;100.00;100823.25;5270741;28;20118;-74
2023/08/27 11:34:55;;;;;;;2.80;0.50;;;;;;;19.78;100.00;100811.25;5278422;28;20032;-73
2023/08/27 11:37:31;;;;;;;1.57;0.50;;;;;;;19.91;100.00;100801.53;5275687;28;20032;-72
2023/08/27 11:40:12;;;;;;;1.67;0.70;;;;;;;19.95;100.00;100809.13;5269578;28;21468;-74
2023/08/27 11:42:51;;;;;;;4.05;0.73;;;;;;;19.81;100.00;100811.69;5272314;28;20021;-71